Time;durP1;ratioP1;P1;durP2;ratioP2;P2;SDS_P1;SDS_P2;PMS_P1;PMS_P2;Temp;Humidity;BMP_temperature;BMP_pressure;BME280_temperature;BME280_humidity;BME280_pressure;Samples;Min_cycle;Max_cycle;Signal;HPM_P1;HPM_P2
2022/08/20 00:00:13;;;;;;;16.03;11.77;;;25.60;49.70;;;;;;5032346;28;20507;-42
2022/08/20 00:03:08;;;;;;;16.13;11.70;;;25.60;49.70;;;;;;5032149;28;20683;-42
2022/08/20 00:05:41;;;;;;;16.97;11.77;;;25.60;49.70;;;;;;5032061;28;20825;-43
2022/08/20 00:08:08;;;;;;;19.03;11.23;;;25.60;49.80;;;;;;5032328;28;20393;-42
2022/08/20 00:10:36;;;;;;;14.97;11.70;;;25.50;49.80;;;;;;5032213;28;20463;-41
2022/08/20 00:13:03;;;;;;;17.40;12.17;;;25.50;49.80;;;;;;5032216;28;20435;-42
2022/08/20 00:15:33;;;;;;;17.03;10.53;;;25.50;49.90;;;;;;5032014;28;20413;-42
2022/08/20 00:17:59;;;;;;;18.40;11.37;;;25.50;49.80;;;;;;5032245;28;20547;-43
2022/08/20 00:20:28;;;;;;;19.83;11.90;;;25.50;49.80;;;;;;5014379;28;20417;-43
2022/08/20 00:22:57;;;;;;;13.40;10.27;;;25.50;49.70;;;;;;5032082;28;20982;-41
2022/08/20 00:25:27;;;;;;;21.50;12.33;;;25.50;49.80;;;;;;5032134;28;20409;-43
2022/08/20 00:27:53;;;;;;;16.30;10.07;;;25.50;49.90;;;;;;5031931;28;20409;-41
2022/08/20 00:30:19;;;;;;;16.40;11.90;;;25.50;49.90;;;;;;5032220;28;20407;-44
2022/08/20 00:32:55;;;;;;;15.60;12.13;;;25.50;49.60;;;;;;5032041;28;20421;-44
2022/08/20 00:35:26;;;;;;;14.57;10.97;;;25.50;49.60;;;;;;5032366;28;20389;-43
2022/08/20 00:37:53;;;;;;;15.97;10.90;;;25.50;49.60;;;;;;5031880;28;20395;-43
2022/08/20 00:40:23;;;;;;;18.13;12.43;;;25.50;49.70;;;;;;5031897;28;20401;-43
2022/08/20 00:42:57;;;;;;;19.33;12.73;;;25.50;49.70;;;;;;5031838;28;20456;-43
2022/08/20 00:45:25;;;;;;;20.70;13.53;;;25.50;49.70;;;;;;5032127;28;20442;-42
2022/08/20 00:47:52;;;;;;;17.37;12.07;;;25.40;49.60;;;;;;5031670;28;20970;-42
2022/08/20 00:50:21;;;;;;;19.50;11.87;;;25.40;49.80;;;;;;5032202;28;20492;-44
2022/08/20 00:52:51;;;;;;;20.33;11.93;;;25.40;49.80;;;;;;5031927;28;20424;-42
2022/08/20 00:55:21;;;;;;;20.77;12.53;;;25.40;49.80;;;;;;5034499;28;20487;-42
2022/08/20 00:57:53;;;;;;;17.60;13.47;;;25.40;49.90;;;;;;5035755;28;20412;-43
2022/08/20 01:00:36;;;;;;;19.90;12.80;;;25.40;50.00;;;;;;5036087;28;20409;-43
2022/08/20 01:03:08;;;;;;;16.43;12.07;;;25.40;50.30;;;;;;5035725;28;20968;-42
2022/08/20 01:05:38;;;;;;;22.37;14.03;;;25.30;50.40;;;;;;5035476;28;20417;-43
2022/08/20 01:08:05;;;;;;;19.57;13.13;;;25.30;50.60;;;;;;5035883;28;20892;-41
2022/08/20 01:10:38;;;;;;;19.93;12.80;;;25.30;50.60;;;;;;5035515;28;20806;-42
2022/08/20 01:13:09;;;;;;;21.73;14.63;;;25.30;50.60;;;;;;5035431;28;20985;-42
2022/08/20 01:15:41;;;;;;;20.70;13.03;;;25.30;50.80;;;;;;5035204;28;20427;-43
2022/08/20 01:18:20;;;;;;;16.27;12.87;;;25.30;50.90;;;;;;5035831;28;20413;-44
2022/08/20 01:20:50;;;;;;;23.17;13.57;;;25.30;51.20;;;;;;5035351;28;20507;-42
2022/08/20 01:23:46;;;;;;;18.13;13.00;;;25.30;51.30;;;;;;5035670;28;20745;-42
2022/08/20 01:26:29;;;;;;;19.87;14.43;;;25.30;51.30;;;;;;5035165;28;20444;-42
2022/08/20 01:29:00;;;;;;;19.40;15.17;;;25.20;51.30;;;;;;5035483;28;20772;-42
2022/08/20 01:31:31;;;;;;;22.53;15.63;;;25.20;51.50;;;;;;5034989;28;20431;-41
2022/08/20 01:34:00;;;;;;;23.07;15.57;;;25.20;51.50;;;;;;5035195;28;20405;-43
2022/08/20 01:36:35;;;;;;;19.67;12.63;;;25.20;51.60;;;;;;5035294;28;20760;-43
2022/08/20 01:39:02;;;;;;;19.70;13.03;;;25.20;51.70;;;;;;5035324;28;20463;-42
2022/08/20 01:41:50;;;;;;;19.93;13.40;;;25.10;51.70;;;;;;5035055;28;20998;-42
2022/08/20 01:44:17;;;;;;;21.37;16.03;;;25.10;51.70;;;;;;5034981;28;20467;-42
2022/08/20 01:46:45;;;;;;;22.70;14.77;;;25.00;51.80;;;;;;5034707;28;20461;-42
2022/08/20 01:49:42;;;;;;;21.63;14.37;;;25.00;51.90;;;;;;5035271;28;20760;-42
2022/08/20 01:52:13;;;;;;;23.00;15.60;;;25.00;51.90;;;;;;5016302;28;20433;-43
2022/08/20 01:54:39;;;;;;;24.43;15.20;;;25.00;52.00;;;;;;5034770;28;20433;-43
2022/08/20 01:57:11;;;;;;;19.23;13.17;;;25.00;52.20;;;;;;5034825;28;20491;-43
2022/08/20 01:59:37;;;;;;;24.50;15.17;;;25.00;52.20;;;;;;5034579;28;20393;-41
2022/08/20 02:02:04;;;;;;;21.60;14.20;;;25.00;52.30;;;;;;5034611;28;20456;-41
2022/08/20 02:04:30;;;;;;;25.00;15.70;;;25.00;52.50;;;;;;5034594;28;20205;-43
2022/08/20 02:06:58;;;;;;;21.10;14.33;;;25.00;52.40;;;;;;5034089;28;20976;-42
2022/08/20 02:09:29;;;;;;;23.23;16.10;;;24.90;52.40;;;;;;5034408;28;20405;-42
2022/08/20 02:11:56;;;;;;;24.13;16.60;;;24.90;52.50;;;;;;5034262;28;20457;-40
2022/08/20 02:14:22;;;;;;;24.00;15.70;;;25.00;52.70;;;;;;5034568;28;20503;-41
2022/08/20 02:16:49;;;;;;;23.13;15.10;;;24.90;52.80;;;;;;5034089;28;20447;-42
2022/08/20 02:19:32;;;;;;;26.43;16.73;;;24.90;52.90;;;;;;5034279;28;20404;-41
2022/08/20 02:22:03;;;;;;;22.73;16.30;;;24.90;52.90;;;;;;5034226;28;20495;-42
2022/08/20 02:24:28;;;;;;;30.07;17.00;;;24.90;53.00;;;;;;5034416;28;20397;-42
2022/08/20 02:26:55;;;;;;;27.03;16.00;;;24.90;53.00;;;;;;5033699;28;20522;-42
2022/08/20 02:29:22;;;;;;;29.33;17.70;;;24.80;53.10;;;;;;5034118;28;20201;-40
2022/08/20 02:31:48;;;;;;;23.77;14.97;;;24.80;53.10;;;;;;5034042;28;20450;-42
2022/08/20 02:34:14;;;;;;;30.13;16.77;;;24.80;53.20;;;;;;5033928;28;20405;-41
2022/08/20 02:36:42;;;;;;;24.77;17.40;;;24.80;53.30;;;;;;5033935;28;20174;-42
2022/08/20 02:39:11;;;;;;;27.10;18.27;;;24.80;53.40;;;;;;5034036;28;20544;-42
2022/08/20 02:41:37;;;;;;;23.33;14.90;;;24.80;53.50;;;;;;5015949;28;20428;-41
2022/08/20 02:44:04;;;;;;;24.77;15.80;;;24.80;53.70;;;;;;5033695;28;20815;-42
2022/08/20 02:46:31;;;;;;;27.13;16.87;;;24.80;53.70;;;;;;5033620;28;20449;-42
2022/08/20 02:48:57;;;;;;;25.83;15.53;;;24.80;53.70;;;;;;5033726;28;20409;-42
2022/08/20 02:51:23;;;;;;;30.47;16.27;;;24.80;53.80;;;;;;5033484;28;20424;-42
2022/08/20 02:53:49;;;;;;;25.60;16.93;;;24.80;53.70;;;;;;5033440;28;20409;-43
2022/08/20 02:56:15;;;;;;;23.93;15.37;;;24.70;53.90;;;;;;5033391;28;20409;-43
2022/08/20 02:58:42;;;;;;;27.43;17.00;;;24.70;53.90;;;;;;5015825;28;20420;-42
2022/08/20 03:01:11;;;;;;;29.23;16.13;;;24.70;54.00;;;;;;5033105;28;20455;-42
2022/08/20 03:03:38;;;;;;;28.13;17.17;;;24.70;54.20;;;;;;5033410;28;20411;-40
2022/08/20 03:06:05;;;;;;;25.20;16.67;;;24.70;54.40;;;;;;5033046;28;20459;-41
2022/08/20 03:08:32;;;;;;;27.37;16.80;;;24.60;54.40;;;;;;5033273;28;20924;-40
2022/08/20 03:10:58;;;;;;;22.23;16.20;;;24.60;54.50;;;;;;5033275;28;20475;-40
2022/08/20 03:13:24;;;;;;;24.43;17.73;;;24.60;54.60;;;;;;5033227;28;20904;-40
2022/08/20 03:15:53;;;;;;;24.43;14.93;;;24.60;54.90;;;;;;5032919;28;20408;-41
2022/08/20 03:18:21;;;;;;;27.30;17.07;;;24.50;54.90;;;;;;5032276;28;20401;-41
2022/08/20 03:20:48;;;;;;;23.93;16.87;;;24.50;55.10;;;;;;5033137;28;20501;-39
2022/08/20 03:23:15;;;;;;;26.70;16.20;;;24.40;55.10;;;;;;5032889;28;20507;-41
2022/08/20 03:25:42;;;;;;;23.27;15.20;;;24.40;55.30;;;;;;5032556;28;20404;-42
2022/08/20 03:28:09;;;;;;;26.77;16.10;;;24.30;55.50;;;;;;5032976;28;20393;-42
2022/08/20 03:30:35;;;;;;;23.03;16.07;;;24.40;55.50;;;;;;5032931;28;20405;-41
2022/08/20 03:33:01;;;;;;;22.20;15.77;;;24.30;55.60;;;;;;5032946;28;20421;-41
2022/08/20 03:35:29;;;;;;;26.73;14.37;;;24.30;55.40;;;;;;5032603;28;20435;-41
2022/08/20 03:37:56;;;;;;;23.27;13.87;;;24.30;55.60;;;;;;5032659;28;20723;-41
2022/08/20 03:40:26;;;;;;;22.63;16.07;;;24.30;55.70;;;;;;5032599;28;20507;-41
2022/08/20 03:42:52;;;;;;;29.17;17.80;;;24.30;55.80;;;;;;5032639;28;20428;-41
2022/08/20 03:45:19;;;;;;;26.27;16.57;;;24.30;56.00;;;;;;5032553;28;20784;-42
2022/08/20 03:47:45;;;;;;;28.80;17.07;;;24.30;55.70;;;;;;5032302;28;20460;-41
2022/08/20 03:50:12;;;;;;;26.87;16.70;;;24.30;55.80;;;;;;5032525;28;20492;-42
2022/08/20 03:52:38;;;;;;;24.80;16.03;;;24.30;56.00;;;;;;5032723;28;20427;-41
2022/08/20 03:55:07;;;;;;;25.93;16.97;;;24.20;55.80;;;;;;5032652;28;20412;-42
2022/08/20 03:57:33;;;;;;;25.63;17.70;;;24.20;55.90;;;;;;5032278;28;20405;-42
2022/08/20 03:59:58;;;;;;;24.30;13.93;;;24.20;55.90;;;;;;5032402;28;20955;-40
2022/08/20 04:02:25;;;;;;;22.73;16.70;;;24.30;56.00;;;;;;5032198;28;20448;-41
2022/08/20 04:04:51;;;;;;;23.90;14.77;;;24.20;56.00;;;;;;5032533;28;20186;-41
2022/08/20 04:07:26;;;;;;;24.20;16.00;;;24.20;55.80;;;;;;5031975;28;20480;-41
2022/08/20 04:09:54;;;;;;;23.47;13.97;;;24.20;56.00;;;;;;5032242;28;20157;-41
2022/08/20 04:12:20;;;;;;;23.37;15.00;;;24.20;56.10;;;;;;5032141;28;20424;-41
2022/08/20 04:14:46;;;;;;;19.47;13.07;;;24.20;56.20;;;;;;5032143;28;20484;-42
2022/08/20 04:17:13;;;;;;;23.13;15.43;;;24.20;56.20;;;;;;5031875;28;20496;-42
2022/08/20 04:19:40;;;;;;;19.60;12.57;;;24.20;56.20;;;;;;5032398;28;20189;-41
2022/08/20 04:22:06;;;;;;;19.17;13.07;;;24.10;56.30;;;;;;5032243;28;20468;-41
2022/08/20 04:24:33;;;;;;;19.03;11.40;;;24.10;56.30;;;;;;5032251;28;20410;-41
2022/08/20 04:27:04;;;;;;;18.83;11.00;;;24.10;56.40;;;;;;5031760;28;20590;-42
2022/08/20 04:29:32;;;;;;;13.53;9.90;;;24.10;56.60;;;;;;5037293;28;20420;-42
2022/08/20 04:31:59;;;;;;;12.87;10.13;;;24.10;56.40;;;;;;5038837;28;20459;-42
2022/08/20 04:34:25;;;;;;;13.20;8.10;;;24.10;56.40;;;;;;5038563;28;20404;-41
2022/08/20 04:36:51;;;;;;;12.47;7.90;;;24.10;56.40;;;;;;5038652;28;20404;-41
2022/08/20 04:39:17;;;;;;;14.03;8.50;;;24.10;56.60;;;;;;5038624;28;20252;-41
2022/08/20 04:41:43;;;;;;;14.23;8.27;;;24.10;56.60;;;;;;5038654;28;20775;-40
2022/08/20 04:44:10;;;;;;;10.97;8.40;;;24.10;56.70;;;;;;5038450;28;20416;-40
2022/08/20 04:46:36;;;;;;;14.90;9.57;;;24.10;56.60;;;;;;5038371;28;20467;-40
2022/08/20 04:49:03;;;;;;;12.00;7.87;;;24.00;56.60;;;;;;5038488;28;20404;-40
2022/08/20 04:51:29;;;;;;;10.20;6.60;;;24.00;56.60;;;;;;5038356;28;20424;-41
2022/08/20 04:53:56;;;;;;;12.10;6.40;;;24.00;56.80;;;;;;5038559;28;20776;-41
2022/08/20 04:56:24;;;;;;;9.50;6.50;;;24.00;56.90;;;;;;5038127;28;20412;-41
2022/08/20 04:58:51;;;;;;;9.90;6.53;;;24.00;57.00;;;;;;5038185;28;20408;-39
2022/08/20 05:01:17;;;;;;;12.17;7.67;;;24.00;56.80;;;;;;5038379;28;20467;-40
2022/08/20 05:03:44;;;;;;;8.60;6.00;;;24.00;56.90;;;;;;5038314;28;20439;-40
2022/08/20 05:06:11;;;;;;;10.97;6.90;;;24.00;56.90;;;;;;5038342;28;20194;-40
2022/08/20 05:08:37;;;;;;;9.30;6.90;;;24.00;56.90;;;;;;5038311;28;20507;-40
2022/08/20 05:11:04;;;;;;;9.77;6.90;;;24.00;56.90;;;;;;5038280;28;20924;-41
2022/08/20 05:13:30;;;;;;;11.10;7.83;;;24.00;57.10;;;;;;5038082;28;20478;-41
2022/08/20 05:16:00;;;;;;;9.17;6.60;;;24.00;57.10;;;;;;5038141;28;20488;-41
2022/08/20 05:18:26;;;;;;;10.53;6.70;;;23.90;57.10;;;;;;5038548;28;20170;-41
2022/08/20 05:20:52;;;;;;;12.73;6.87;;;23.90;57.00;;;;;;5038392;28;20411;-41
2022/08/20 05:23:19;;;;;;;11.70;7.33;;;23.90;57.10;;;;;;5038101;28;20563;-40
2022/08/20 05:25:50;;;;;;;8.87;6.50;;;23.90;57.30;;;;;;5038011;28;20459;-40
2022/08/20 05:28:31;;;;;;;10.80;7.07;;;23.90;57.20;;;;;;5038285;28;20745;-40
2022/08/20 05:30:57;;;;;;;12.63;7.13;;;23.90;57.40;;;;;;5037988;28;20400;-40
2022/08/20 05:33:24;;;;;;;15.93;8.03;;;23.80;57.30;;;;;;5038038;28;20432;-40
2022/08/20 05:35:51;;;;;;;13.07;8.20;;;23.90;57.60;;;;;;5038071;28;20408;-41
2022/08/20 05:38:20;;;;;;;12.53;8.00;;;23.80;57.50;;;;;;5037936;28;20404;-40
2022/08/20 05:40:46;;;;;;;15.30;8.40;;;23.90;57.50;;;;;;5035280;28;20480;-41
2022/08/20 05:43:13;;;;;;;15.97;10.20;;;23.90;57.40;;;;;;5035185;28;20412;-41
2022/08/20 05:45:42;;;;;;;15.50;9.73;;;23.90;57.40;;;;;;5034779;28;20487;-42
2022/08/20 05:48:16;;;;;;;13.57;9.07;;;23.90;57.50;;;;;;5034814;28;20487;-41
2022/08/20 05:50:44;;;;;;;20.87;11.03;;;23.90;57.40;;;;;;5034630;28;20407;-41
2022/08/20 05:53:10;;;;;;;15.80;11.07;;;23.80;57.40;;;;;;5034547;28;20404;-41
2022/08/20 05:55:36;;;;;;;12.03;10.20;;;23.80;57.40;;;;;;5034403;28;20399;-41
2022/08/20 05:58:04;;;;;;;15.00;9.87;;;23.80;57.40;;;;;;5034501;28;20405;-41
2022/08/20 06:00:32;;;;;;;18.23;9.93;;;23.90;57.50;;;;;;5034688;28;20404;-41
2022/08/20 06:05:42;;;;;;;15.33;10.70;;;23.90;57.50;;;;;;5034456;28;20384;-41
2022/08/20 06:08:09;;;;;;;15.97;10.43;;;23.90;57.50;;;;;;5034544;28;20401;-41
2022/08/20 06:10:36;;;;;;;11.97;8.43;;;23.90;57.50;;;;;;5034348;28;20413;-41
2022/08/20 06:13:03;;;;;;;14.87;10.67;;;24.00;57.50;;;;;;5034537;28;20452;-41
2022/08/20 06:15:30;;;;;;;14.60;9.73;;;24.00;57.60;;;;;;5034312;28;20408;-40
2022/08/20 06:17:56;;;;;;;14.63;10.80;;;24.00;57.60;;;;;;5034135;28;20505;-41
2022/08/20 06:20:22;;;;;;;14.30;9.70;;;24.00;57.60;;;;;;5034201;28;20417;-39
2022/08/20 06:22:48;;;;;;;13.87;8.80;;;24.10;57.80;;;;;;5034137;28;20437;-40
2022/08/20 06:25:14;;;;;;;13.00;7.90;;;24.10;58.40;;;;;;5034242;28;20464;-40
2022/08/20 06:27:41;;;;;;;12.53;9.27;;;24.10;57.70;;;;;;5033884;28;20460;-41
2022/08/20 06:30:11;;;;;;;13.77;9.27;;;24.10;57.80;;;;;;5033982;28;20404;-40
2022/08/20 06:32:37;;;;;;;16.07;8.63;;;24.10;57.80;;;;;;5033737;28;20428;-40
2022/08/20 06:35:06;;;;;;;13.10;9.17;;;24.10;57.70;;;;;;5033906;28;20411;-40
2022/08/20 06:37:35;;;;;;;14.40;9.17;;;24.20;57.80;;;;;;5033884;28;20210;-40
2022/08/20 06:40:15;;;;;;;10.83;8.70;;;24.20;57.80;;;;;;5033786;28;20435;-40
2022/08/20 06:42:44;;;;;;;13.97;9.73;;;24.30;57.90;;;;;;5033703;28;20439;-40
2022/08/20 06:45:12;;;;;;;16.70;11.07;;;24.20;57.90;;;;;;5033970;28;20455;-39
2022/08/20 06:47:40;;;;;;;16.23;10.80;;;24.30;57.90;;;;;;5033614;28;20460;-40
2022/08/20 06:50:08;;;;;;;16.70;10.70;;;24.20;57.80;;;;;;5033916;28;20405;-40
2022/08/20 06:52:36;;;;;;;17.20;10.90;;;24.20;57.60;;;;;;5032586;28;20437;-41
2022/08/20 06:55:02;;;;;;;15.90;11.83;;;24.20;57.50;;;;;;5033845;28;20412;-40
2022/08/20 06:57:28;;;;;;;20.63;12.97;;;24.10;57.60;;;;;;5033157;28;20409;-40
2022/08/20 06:59:54;;;;;;;19.43;12.97;;;24.10;57.60;;;;;;5033464;28;20419;-40
2022/08/20 07:02:23;;;;;;;20.00;12.90;;;24.00;57.60;;;;;;5033408;28;20225;-40
2022/08/20 07:04:49;;;;;;;17.33;12.00;;;24.00;57.60;;;;;;5033575;28;20448;-40
2022/08/20 07:07:16;;;;;;;27.83;14.83;;;24.00;57.60;;;;;;5033186;28;20480;-40
2022/08/20 07:09:42;;;;;;;21.83;14.67;;;24.00;57.70;;;;;;5033548;28;20174;-41
2022/08/20 07:12:09;;;;;;;20.60;14.17;;;24.00;57.60;;;;;;5033072;28;20967;-40
2022/08/20 07:14:35;;;;;;;18.60;12.57;;;24.00;57.60;;;;;;5033423;28;20178;-41
2022/08/20 07:17:05;;;;;;;25.67;14.00;;;23.80;57.60;;;;;;5033130;28;20413;-41
2022/08/20 07:19:32;;;;;;;20.73;13.30;;;24.00;57.60;;;;;;5033340;28;20477;-40
2022/08/20 07:21:58;;;;;;;20.57;14.90;;;24.00;57.70;;;;;;5032937;28;20854;-41
2022/08/20 07:24:24;;;;;;;21.80;15.50;;;24.00;57.70;;;;;;5032960;28;20503;-41
2022/08/20 07:26:51;;;;;;;22.87;14.67;;;24.00;57.70;;;;;;5032612;28;20805;-40
2022/08/20 07:29:18;;;;;;;22.73;14.80;;;24.00;57.70;;;;;;5033050;28;20432;-41
2022/08/20 07:34:30;;;;;;;23.47;17.23;;;23.90;57.70;;;;;;5033087;28;20403;-40
2022/08/20 07:36:59;;;;;;;25.07;16.27;;;23.90;57.80;;;;;;5032673;28;20459;-41
2022/08/20 07:39:25;;;;;;;24.00;14.37;;;23.90;57.60;;;;;;5033063;28;20416;-41
2022/08/20 07:42:01;;;;;;;24.93;15.00;;;23.90;57.80;;;;;;5032888;28;20519;-41
2022/08/20 07:44:29;;;;;;;22.67;15.17;;;23.90;57.70;;;;;;5081705;23;20525;-42
2022/08/20 07:46:57;;;;;;;30.27;17.50;;;23.90;57.70;;;;;;5071849;28;20470;-42
2022/08/20 07:49:22;;;;;;;22.00;14.63;;;23.90;57.80;;;;;;5072615;28;20956;-42
2022/08/20 07:51:48;;;;;;;23.57;13.60;;;23.90;57.80;;;;;;5072669;28;20399;-42
2022/08/20 07:54:14;;;;;;;32.33;17.20;;;24.00;57.90;;;;;;5072508;28;20181;-42
2022/08/20 07:56:40;;;;;;;24.37;17.10;;;24.00;58.00;;;;;;5072187;28;20406;-42
2022/08/20 07:59:05;;;;;;;22.20;15.70;;;24.00;58.10;;;;;;5071069;28;20263;-41
2022/08/20 08:01:31;;;;;;;23.67;16.13;;;24.00;58.00;;;;;;5072348;28;20660;-42
2022/08/20 08:03:58;;;;;;;26.27;17.10;;;24.00;58.00;;;;;;5071854;28;20748;-42
2022/08/20 08:06:26;;;;;;;26.80;17.90;;;24.10;58.30;;;;;;5072278;28;20806;-42
2022/08/20 08:08:52;;;;;;;24.80;18.07;;;24.00;58.20;;;;;;5072214;28;20937;-42
2022/08/20 08:11:18;;;;;;;19.67;14.97;;;24.10;58.90;;;;;;5072171;28;20447;-43
2022/08/20 08:13:46;;;;;;;31.13;17.63;;;24.10;58.40;;;;;;5071995;28;20426;-42
2022/08/20 08:16:12;;;;;;;27.30;16.93;;;24.10;58.40;;;;;;5070844;28;20579;-42
2022/08/20 08:18:43;;;;;;;24.23;14.70;;;24.10;58.50;;;;;;5072322;28;20415;-42
2022/08/20 08:21:13;;;;;;;26.53;17.60;;;24.10;58.50;;;;;;5072158;28;20388;-42
2022/08/20 08:23:43;;;;;;;33.23;21.17;;;24.20;58.70;;;;;;5072005;28;20423;-42
2022/08/20 08:26:13;;;;;;;27.80;18.00;;;24.20;58.50;;;;;;5071677;28;20534;-42
2022/08/20 08:28:42;;;;;;;29.40;18.87;;;24.20;58.70;;;;;;5072059;28;20925;-42
2022/08/20 08:31:09;;;;;;;28.47;18.37;;;24.20;58.60;;;;;;5071988;28;20490;-42
2022/08/20 08:33:35;;;;;;;24.27;16.13;;;24.20;58.60;;;;;;5071875;28;20438;-41
2022/08/20 08:36:10;;;;;;;29.00;17.20;;;24.30;58.70;;;;;;5071704;28;20430;-42
2022/08/20 08:38:39;;;;;;;26.07;15.87;;;24.20;58.60;;;;;;5071995;28;20440;-42
2022/08/20 08:41:37;;;;;;;21.77;15.50;;;24.30;59.50;;;;;;5072070;28;20487;-42
2022/08/20 08:44:08;;;;;;;24.77;18.50;;;24.30;58.80;;;;;;5064213;28;20454;-42
2022/08/20 08:46:47;;;;;;;29.80;19.40;;;24.20;58.70;;;;;;5071752;28;20999;-42
2022/08/20 08:49:18;;;;;;;28.57;17.60;;;24.20;58.80;;;;;;5071697;28;20379;-43
2022/08/20 08:51:49;;;;;;;29.93;17.10;;;24.20;59.00;;;;;;5071996;28;20391;-42
2022/08/20 08:54:18;;;;;;;29.10;18.00;;;24.30;59.00;;;;;;5071775;28;20438;-42
2022/08/20 08:56:45;;;;;;;36.90;19.17;;;24.30;59.00;;;;;;5071455;28;20437;-42
2022/08/20 08:59:11;;;;;;;30.37;19.63;;;24.30;59.00;;;;;;5071993;28;20411;-42
2022/08/20 09:01:44;;;;;;;25.90;16.70;;;24.30;58.90;;;;;;5071624;28;20448;-42
2022/08/20 09:04:15;;;;;;;32.13;20.47;;;24.40;58.80;;;;;;5071536;28;20430;-42
2022/08/20 09:06:42;;;;;;;26.70;17.37;;;24.40;58.80;;;;;;5071592;28;20462;-42
2022/08/20 09:09:17;;;;;;;31.63;19.73;;;24.40;58.80;;;;;;5071539;28;20436;-42
2022/08/20 09:11:50;;;;;;;30.57;18.93;;;24.40;58.70;;;;;;5071597;28;20391;-42
2022/08/20 09:14:15;;;;;;;30.27;18.27;;;24.50;58.80;;;;;;5071645;28;20441;-42
2022/08/20 09:16:41;;;;;;;27.67;19.80;;;24.50;58.70;;;;;;5074303;28;20409;-42
2022/08/20 09:19:07;;;;;;;34.30;20.37;;;24.40;58.60;;;;;;5075289;28;20176;-42
2022/08/20 09:21:33;;;;;;;26.17;18.27;;;24.40;58.60;;;;;;5075200;28;20168;-41
2022/08/20 09:23:58;;;;;;;25.33;17.93;;;24.40;58.60;;;;;;5075078;28;20191;-42
2022/08/20 09:26:24;;;;;;;34.33;19.80;;;24.30;58.70;;;;;;5074821;28;20279;-42
2022/08/20 09:28:50;;;;;;;27.60;18.10;;;24.30;58.80;;;;;;5075200;28;20184;-41
2022/08/20 09:31:16;;;;;;;34.50;19.80;;;24.30;58.70;;;;;;5075019;28;20528;-42
2022/08/20 09:33:41;;;;;;;26.03;17.03;;;24.30;58.70;;;;;;5075068;28;20729;-42
2022/08/20 09:36:07;;;;;;;24.73;17.90;;;24.30;58.70;;;;;;5074718;28;20659;-41
2022/08/20 09:38:33;;;;;;;28.47;18.93;;;24.40;58.70;;;;;;5074858;28;20701;-42
2022/08/20 09:40:59;;;;;;;28.03;19.37;;;24.40;58.70;;;;;;5074885;28;20161;-42
2022/08/20 09:43:24;;;;;;;25.27;17.70;;;24.40;58.80;;;;;;5074462;28;20204;-41
2022/08/20 09:45:50;;;;;;;30.03;18.60;;;24.40;58.70;;;;;;5074459;28;20177;-42
2022/08/20 09:48:16;;;;;;;27.33;16.90;;;24.50;59.00;;;;;;5074813;28;20165;-42
2022/08/20 09:50:46;;;;;;;27.10;17.20;;;24.50;58.80;;;;;;5073396;28;20639;-42
2022/08/20 09:53:13;;;;;;;25.97;18.10;;;24.50;58.80;;;;;;5074655;28;20543;-42
2022/08/20 09:55:44;;;;;;;31.23;16.63;;;24.50;59.00;;;;;;5074368;28;20410;-41
2022/08/20 09:58:13;;;;;;;24.20;15.37;;;24.50;58.90;;;;;;5074538;28;20484;-41
2022/08/20 10:00:39;;;;;;;25.93;17.43;;;24.50;58.90;;;;;;5074677;28;20739;-41
2022/08/20 10:03:05;;;;;;;22.10;15.37;;;24.50;59.10;;;;;;5074357;28;20431;-43
2022/08/20 10:05:31;;;;;;;24.40;17.10;;;24.50;59.30;;;;;;5074290;28;20418;-41
2022/08/20 10:07:57;;;;;;;24.57;15.50;;;24.40;59.50;;;;;;5074250;28;20200;-41
2022/08/20 10:10:23;;;;;;;27.77;18.00;;;24.40;59.30;;;;;;5074301;28;20192;-42
2022/08/20 10:12:48;;;;;;;27.03;18.20;;;24.50;59.30;;;;;;5074218;28;20942;-42
2022/08/20 10:15:14;;;;;;;29.27;18.00;;;24.50;59.20;;;;;;5074177;28;20930;-42
2022/08/20 10:17:42;;;;;;;26.67;18.47;;;24.50;59.10;;;;;;5074001;28;20660;-42
2022/08/20 10:20:12;;;;;;;30.83;19.00;;;24.50;59.10;;;;;;5074142;28;20683;-42
2022/08/20 10:22:38;;;;;;;27.20;17.63;;;24.60;59.10;;;;;;5073964;28;20933;-43
2022/08/20 10:25:05;;;;;;;24.87;17.50;;;24.50;59.00;;;;;;5073906;28;20403;-43
2022/08/20 10:27:32;;;;;;;32.23;20.10;;;24.60;59.00;;;;;;5073657;28;20439;-43
2022/08/20 10:29:58;;;;;;;29.30;17.83;;;24.60;59.00;;;;;;5073844;28;20405;-43
2022/08/20 10:32:23;;;;;;;26.87;20.23;;;24.60;59.00;;;;;;5073972;28;20763;-42
2022/08/20 10:34:49;;;;;;;24.93;17.93;;;24.60;59.00;;;;;;5073892;28;20418;-43
2022/08/20 10:37:18;;;;;;;27.80;18.07;;;24.70;59.10;;;;;;5073654;28;20252;-42
2022/08/20 10:39:44;;;;;;;26.07;17.67;;;24.70;59.00;;;;;;5073687;28;20825;-42
2022/08/20 10:42:11;;;;;;;23.27;16.30;;;24.70;59.00;;;;;;5073721;28;20407;-42
2022/08/20 10:44:37;;;;;;;20.10;16.37;;;24.80;58.90;;;;;;5073562;28;20984;-42
2022/08/20 10:47:17;;;;;;;26.13;18.63;;;24.70;58.90;;;;;;5073573;28;20783;-42
2022/08/20 10:49:44;;;;;;;26.93;18.37;;;24.80;58.80;;;;;;5073591;28;20402;-41
2022/08/20 10:52:10;;;;;;;23.20;16.70;;;24.70;58.70;;;;;;5073445;28;20403;-41
2022/08/20 10:54:40;;;;;;;22.87;15.73;;;24.70;58.60;;;;;;5073442;28;20975;-42
2022/08/20 10:57:06;;;;;;;24.10;18.47;;;24.80;58.60;;;;;;5073210;28;20403;-42
2022/08/20 10:59:36;;;;;;;26.50;18.50;;;24.80;58.80;;;;;;5073301;28;20667;-42
2022/08/20 11:02:01;;;;;;;24.43;16.70;;;24.70;58.50;;;;;;5073319;28;20433;-42
2022/08/20 11:04:27;;;;;;;24.37;18.40;;;24.70;58.60;;;;;;5073421;28;20430;-42
2022/08/20 11:06:53;;;;;;;27.20;19.10;;;24.70;58.60;;;;;;5072934;28;20587;-42
2022/08/20 11:09:19;;;;;;;25.30;17.10;;;24.70;58.40;;;;;;5073163;28;20169;-42
2022/08/20 11:11:44;;;;;;;25.37;17.83;;;24.70;58.20;;;;;;5073055;28;20172;-42
2022/08/20 11:14:10;;;;;;;21.10;16.30;;;24.70;58.40;;;;;;5072997;28;20188;-42
2022/08/20 11:16:36;;;;;;;23.10;19.40;;;24.70;58.40;;;;;;5072808;28;20264;-41
2022/08/20 11:19:02;;;;;;;22.43;15.60;;;24.70;58.30;;;;;;5072929;28;20169;-42
2022/08/20 11:21:28;;;;;;;29.43;18.37;;;24.70;58.50;;;;;;5072792;28;20747;-42
2022/08/20 11:23:53;;;;;;;27.23;17.90;;;24.60;58.40;;;;;;5072876;28;20181;-42
2022/08/20 11:26:22;;;;;;;22.70;16.70;;;24.60;58.50;;;;;;5071290;28;20685;-42
2022/08/20 11:28:48;;;;;;;25.30;18.73;;;24.60;58.50;;;;;;5072739;28;20203;-42
2022/08/20 11:31:14;;;;;;;26.03;17.03;;;24.60;58.50;;;;;;5072730;28;20422;-42
2022/08/20 11:33:40;;;;;;;28.37;19.03;;;24.60;58.60;;;;;;5071291;28;20427;-42
2022/08/20 11:36:06;;;;;;;23.50;18.20;;;24.70;58.80;;;;;;5072536;28;20169;-42
2022/08/20 11:38:31;;;;;;;24.93;17.27;;;24.70;58.70;;;;;;5071935;28;20164;-41
2022/08/20 11:40:57;;;;;;;26.00;17.90;;;24.70;58.60;;;;;;5072513;28;20513;-42
2022/08/20 11:43:23;;;;;;;30.50;17.43;;;24.70;58.60;;;;;;5072420;28;20262;-42
2022/08/20 11:45:53;;;;;;;27.93;20.57;;;24.70;58.60;;;;;;5072313;28;20161;-42
2022/08/20 11:48:19;;;;;;;26.90;18.50;;;24.70;58.60;;;;;;5072361;28;20203;-42
2022/08/20 11:50:46;;;;;;;25.40;18.20;;;24.70;58.50;;;;;;5072423;28;20407;-41
2022/08/20 11:53:12;;;;;;;26.60;18.20;;;24.70;58.60;;;;;;5072307;28;20956;-42
2022/08/20 11:55:38;;;;;;;26.40;18.97;;;24.70;58.50;;;;;;5072197;28;20418;-43
2022/08/20 11:58:03;;;;;;;25.53;17.37;;;24.70;58.70;;;;;;5072561;28;20263;-42
2022/08/20 12:00:31;;;;;;;27.30;19.97;;;24.70;58.60;;;;;;5072336;28;20407;-43
2022/08/20 12:02:57;;;;;;;28.37;20.43;;;24.70;58.70;;;;;;5072275;28;20431;-42
2022/08/20 12:05:23;;;;;;;26.87;18.57;;;24.70;58.70;;;;;;5072207;28;20529;-43
2022/08/20 12:07:48;;;;;;;32.43;21.90;;;24.70;58.80;;;;;;5072012;28;20482;-43
2022/08/20 12:10:15;;;;;;;24.67;18.57;;;24.70;58.70;;;;;;5072221;28;20402;-43
2022/08/20 12:12:40;;;;;;;29.30;20.27;;;24.70;58.70;;;;;;5072031;28;20221;-44
2022/08/20 12:15:08;;;;;;;25.30;20.27;;;24.70;58.70;;;;;;5072415;28;20762;-42
2022/08/20 12:17:34;;;;;;;29.70;19.10;;;24.70;58.70;;;;;;5071738;28;20411;-43
2022/08/20 12:20:09;;;;;;;30.30;19.50;;;24.70;58.80;;;;;;5072075;28;20398;-43
2022/08/20 12:22:35;;;;;;;30.97;20.87;;;24.60;58.80;;;;;;5072034;28;20404;-42
2022/08/20 12:25:01;;;;;;;30.03;18.77;;;24.60;58.80;;;;;;5072020;28;20766;-42
2022/08/20 12:27:30;;;;;;;27.33;18.40;;;24.60;58.80;;;;;;5071650;28;20671;-42
2022/08/20 12:29:58;;;;;;;30.63;20.43;;;24.60;58.80;;;;;;5071912;28;20165;-42
2022/08/20 12:32:27;;;;;;;26.30;19.33;;;24.60;58.80;;;;;;5071909;28;20406;-42
2022/08/20 12:34:53;;;;;;;31.30;22.77;;;24.60;58.80;;;;;;5072175;28;20403;-42
2022/08/20 12:37:26;;;;;;;31.23;20.57;;;24.60;58.90;;;;;;5071652;28;20414;-42